Time;durP1;ratioP1;P1;durP2;ratioP2;P2;SDS_P1;SDS_P2;PMS_P1;PMS_P2;Temp;Humidity;BMP_temperature;BMP_pressure;BME280_temperature;BME280_humidity;BME280_pressure;Samples;Min_cycle;Max_cycle;Signal;HPM_P1;HPM_P2
2023/05/03 00:02:02;;;;;;;3.88;2.35;;;13.50;99.70;;;;;;5070420;28;20733;-67
2023/05/03 00:04:53;;;;;;;5.40;2.40;;;13.30;98.30;;;;;;5072033;28;20262;-69
2023/05/03 00:07:44;;;;;;;3.63;2.20;;;13.10;97.60;;;;;;5064761;28;20227;-69
2023/05/03 00:10:33;;;;;;;7.50;2.60;;;13.20;97.60;;;;;;5079413;28;20224;-69
2023/05/03 00:13:21;;;;;;;4.35;2.13;;;13.50;97.60;;;;;;5070937;28;20272;-69
2023/05/03 00:16:11;;;;;;;6.20;2.78;;;13.60;97.10;;;;;;5068343;28;20777;-70
2023/05/03 00:19:00;;;;;;;3.88;2.40;;;13.50;96.60;;;;;;5085062;28;20223;-71
2023/05/03 00:21:49;;;;;;;7.70;2.75;;;13.50;97.00;;;;;;5075376;28;20750;-69
2023/05/03 00:24:38;;;;;;;5.35;2.70;;;13.50;97.40;;;;;;5072278;28;20308;-69
2023/05/03 00:27:27;;;;;;;4.47;2.25;;;13.00;97.50;;;;;;5072206;28;20995;-68
2023/05/03 00:30:17;;;;;;;6.55;2.50;;;12.60;97.30;;;;;;5069084;28;21177;-70
2023/05/03 00:33:08;;;;;;;4.82;2.42;;;12.60;97.70;;;;;;5071150;28;20758;-69
2023/05/03 00:35:56;;;;;;;5.20;2.53;;;12.80;97.10;;;;;;5070867;28;20596;-69
2023/05/03 00:38:45;;;;;;;4.43;2.50;;;12.80;97.20;;;;;;5070965;28;20219;-70
2023/05/03 00:41:34;;;;;;;5.38;2.30;;;12.60;97.40;;;;;;5078052;28;20223;-71
2023/05/03 00:44:23;;;;;;;3.17;2.30;;;12.90;98.30;;;;;;5073721;28;20344;-70
2023/05/03 00:47:12;;;;;;;4.53;2.30;;;12.80;97.30;;;;;;5072989;28;20368;-68
2023/05/03 00:50:03;;;;;;;5.75;2.38;;;13.00;97.80;;;;;;5069408;28;20230;-68
2023/05/03 00:52:53;;;;;;;6.07;2.50;;;13.10;97.10;;;;;;5075015;28;20953;-69
2023/05/03 00:55:43;;;;;;;4.90;2.20;;;12.90;97.00;;;;;;5075973;28;20302;-69
2023/05/03 00:58:35;;;;;;;4.22;2.50;;;12.80;96.80;;;;;;5074338;28;20220;-68
2023/05/03 01:01:24;;;;;;;8.27;3.03;;;12.90;96.80;;;;;;5070456;28;20223;-70
2023/05/03 01:04:13;;;;;;;3.97;2.20;;;12.80;96.90;;;;;;5089662;27;20216;-68
2023/05/03 01:07:13;;;;;;;5.53;2.50;;;13.00;97.20;;;;;;5072324;28;20266;-69
2023/05/03 01:10:15;;;;;;;5.32;2.40;;;12.90;96.70;;;;;;5075058;28;20722;-68
2023/05/03 01:13:11;;;;;;;4.88;2.50;;;12.80;97.00;;;;;;5067749;28;20219;-71
2023/05/03 01:16:06;;;;;;;3.75;2.47;;;12.80;97.40;;;;;;5065297;28;20224;-71
2023/05/03 01:19:00;;;;;;;5.97;2.40;;;12.70;97.00;;;;;;5068685;28;20231;-69
2023/05/03 01:21:59;;;;;;;4.88;2.80;;;12.80;97.60;;;;;;5071252;28;20281;-69
2023/05/03 01:24:53;;;;;;;4.97;2.20;;;12.80;97.50;;;;;;5064420;28;20243;-71
2023/05/03 01:27:43;;;;;;;3.42;2.10;;;12.80;97.30;;;;;;5070986;28;20266;-69
2023/05/03 01:30:33;;;;;;;3.65;2.42;;;12.80;97.50;;;;;;5069638;28;20223;-70
2023/05/03 01:33:31;;;;;;;6.50;2.67;;;12.80;96.80;;;;;;5069403;28;20655;-70
2023/05/03 01:36:27;;;;;;;9.02;2.42;;;12.60;96.60;;;;;;5062807;28;20274;-68
2023/05/03 01:39:22;;;;;;;4.00;2.42;;;12.60;96.80;;;;;;5063351;28;21272;-69
2023/05/03 01:42:11;;;;;;;5.38;2.70;;;12.60;96.90;;;;;;5070343;28;20238;-69
2023/05/03 01:45:03;;;;;;;5.53;2.30;;;12.60;97.20;;;;;;5070435;28;20243;-68
2023/05/03 01:47:52;;;;;;;4.80;2.40;;;12.70;96.70;;;;;;5056056;28;20354;-69
2023/05/03 01:50:41;;;;;;;4.68;2.20;;;12.70;96.60;;;;;;5066071;28;20223;-70
2023/05/03 01:53:30;;;;;;;4.18;2.42;;;12.60;96.30;;;;;;5053220;28;20226;-69
2023/05/03 01:56:20;;;;;;;4.82;2.45;;;12.50;96.60;;;;;;5077027;28;20722;-69
2023/05/03 01:59:09;;;;;;;5.25;2.05;;;12.60;96.30;;;;;;5070052;28;20708;-70
2023/05/03 02:01:59;;;;;;;5.18;2.42;;;12.50;96.00;;;;;;5077500;28;20568;-70
2023/05/03 02:04:48;;;;;;;4.53;2.38;;;12.60;96.20;;;;;;5073366;28;20238;-69
2023/05/03 02:07:37;;;;;;;4.68;2.20;;;12.70;96.00;;;;;;5076554;27;20246;-69
2023/05/03 02:10:26;;;;;;;5.25;2.30;;;12.60;96.10;;;;;;5071591;28;20635;-69
2023/05/03 02:13:16;;;;;;;4.15;2.10;;;12.60;96.00;;;;;;5081344;28;20358;-69
2023/05/03 02:16:05;;;;;;;5.88;2.60;;;12.60;96.10;;;;;;5073611;28;20253;-69
2023/05/03 02:18:58;;;;;;;7.03;2.53;;;12.50;95.40;;;;;;5074265;28;20228;-68
2023/05/03 02:21:47;;;;;;;3.58;2.00;;;12.50;95.90;;;;;;5072771;28;20215;-69
2023/05/03 02:24:36;;;;;;;3.13;1.90;;;12.60;95.70;;;;;;5064794;28;20388;-70
2023/05/03 02:27:25;;;;;;;9.23;2.42;;;12.80;95.60;;;;;;5060565;28;20363;-70
2023/05/03 02:30:14;;;;;;;5.53;2.20;;;12.80;95.30;;;;;;5042373;28;20290;-69
2023/05/03 02:33:04;;;;;;;5.95;2.17;;;12.80;95.10;;;;;;5041222;28;20224;-69
2023/05/03 02:35:55;;;;;;;7.30;2.40;;;12.80;95.70;;;;;;5044908;28;20235;-67
2023/05/03 02:38:43;;;;;;;2.92;1.80;;;12.70;95.00;;;;;;5042582;28;20302;-69
2023/05/03 02:41:32;;;;;;;4.25;2.10;;;12.70;95.20;;;;;;5064942;28;20232;-69
2023/05/03 02:44:22;;;;;;;4.75;2.00;;;12.80;95.50;;;;;;5072472;28;20716;-73
2023/05/03 02:47:11;;;;;;;4.70;2.60;;;12.80;95.50;;;;;;5059914;28;20231;-69
2023/05/03 02:50:02;;;;;;;6.18;2.80;;;12.80;95.50;;;;;;5048246;28;20744;-69
2023/05/03 02:52:57;;;;;;;4.68;2.53;;;12.80;95.80;;;;;;5042842;28;20696;-70
2023/05/03 02:55:46;;;;;;;4.90;2.53;;;12.80;95.80;;;;;;5046364;28;20688;-69
2023/05/03 02:58:35;;;;;;;4.38;2.55;;;12.80;96.00;;;;;;5046802;28;20240;-69
2023/05/03 03:01:25;;;;;;;6.32;2.70;;;12.60;95.80;;;;;;5034767;28;20363;-69
2023/05/03 03:04:14;;;;;;;5.45;2.55;;;12.60;96.10;;;;;;5049766;28;20232;-68
2023/05/03 03:07:03;;;;;;;3.78;2.45;;;12.70;96.60;;;;;;5041520;28;20945;-68
2023/05/03 03:09:53;;;;;;;8.15;2.95;;;12.70;96.50;;;;;;5042446;28;20572;-69
2023/05/03 03:12:43;;;;;;;7.75;3.03;;;12.70;96.60;;;;;;5040059;28;20314;-68
2023/05/03 03:15:40;;;;;;;9.00;2.80;;;12.80;96.40;;;;;;5040061;28;20770;-69
2023/05/03 03:18:29;;;;;;;4.63;2.60;;;12.70;96.30;;;;;;5038326;28;20244;-70
2023/05/03 03:21:18;;;;;;;3.95;2.50;;;12.40;96.00;;;;;;5051358;28;20727;-70
2023/05/03 03:24:07;;;;;;;5.32;2.60;;;12.50;95.40;;;;;;5031913;28;20314;-70
2023/05/03 03:26:58;;;;;;;4.85;2.47;;;12.40;95.40;;;;;;5050148;28;20951;-71
2023/05/03 03:29:47;;;;;;;4.57;2.75;;;12.50;95.70;;;;;;5066450;28;20231;-70
2023/05/03 03:32:36;;;;;;;6.82;2.78;;;12.50;95.60;;;;;;5074830;28;20742;-70
2023/05/03 03:35:31;;;;;;;5.95;2.67;;;12.50;96.20;;;;;;5067169;28;20274;-69
2023/05/03 03:38:20;;;;;;;4.72;2.88;;;12.30;96.30;;;;;;5071464;28;20226;-70
2023/05/03 03:41:17;;;;;;;7.20;2.85;;;12.40;96.80;;;;;;5069028;28;20227;-70
2023/05/03 03:44:07;;;;;;;5.75;2.80;;;12.30;96.90;;;;;;5074544;28;20224;-70
2023/05/03 03:46:56;;;;;;;6.35;2.72;;;12.60;96.70;;;;;;5075059;28;20235;-68
2023/05/03 03:49:45;;;;;;;7.70;3.10;;;12.50;96.70;;;;;;5069519;28;21142;-72
2023/05/03 03:52:34;;;;;;;5.13;2.80;;;12.40;97.00;;;;;;5074208;28;20230;-70
2023/05/03 03:55:23;;;;;;;6.07;2.75;;;12.30;96.70;;;;;;5069608;28;20324;-70
2023/05/03 03:58:15;;;;;;;6.30;2.70;;;12.50;97.00;;;;;;5093137;27;20232;-69
2023/05/03 04:01:06;;;;;;;5.00;2.72;;;12.60;96.30;;;;;;5074106;28;20699;-69
2023/05/03 04:03:55;;;;;;;6.78;2.60;;;12.70;96.00;;;;;;5071824;28;20262;-69
2023/05/03 04:06:45;;;;;;;4.78;2.25;;;12.60;95.60;;;;;;5070026;28;20228;-69
2023/05/03 04:09:36;;;;;;;5.32;2.50;;;12.40;95.10;;;;;;5066567;28;20683;-70
2023/05/03 04:12:24;;;;;;;4.57;2.55;;;12.40;95.80;;;;;;5080319;28;20219;-70
2023/05/03 04:15:13;;;;;;;5.85;2.60;;;12.60;95.50;;;;;;5072923;28;20226;-69
2023/05/03 04:18:07;;;;;;;4.30;2.72;;;12.50;95.40;;;;;;5063416;28;20231;-70
2023/05/03 04:20:58;;;;;;;3.20;2.30;;;12.50;95.40;;;;;;5068700;28;20255;-71
2023/05/03 04:23:48;;;;;;;4.50;2.20;;;12.60;95.30;;;;;;5068805;28;20231;-70
2023/05/03 04:26:39;;;;;;;3.75;2.38;;;12.60;94.90;;;;;;5071072;28;20228;-69
2023/05/03 04:29:37;;;;;;;4.90;2.20;;;12.50;94.40;;;;;;5075829;28;20228;-71
2023/05/03 04:32:26;;;;;;;7.43;2.50;;;12.10;94.00;;;;;;5068420;28;20284;-70
2023/05/03 04:35:19;;;;;;;5.50;2.72;;;12.00;94.10;;;;;;5072235;28;20675;-69
2023/05/03 04:38:09;;;;;;;4.15;2.20;;;12.00;94.50;;;;;;5067883;28;21191;-69
2023/05/03 04:40:58;;;;;;;3.80;2.40;;;12.30;94.60;;;;;;5069126;28;20228;-70
2023/05/03 04:43:47;;;;;;;4.80;2.83;;;12.40;94.70;;;;;;5078260;28;20215;-69
2023/05/03 04:46:38;;;;;;;6.55;2.60;;;12.40;94.10;;;;;;5069982;28;20215;-68
2023/05/03 04:49:28;;;;;;;4.88;2.55;;;12.30;94.90;;;;;;5071860;28;20251;-69
2023/05/03 04:52:19;;;;;;;3.95;2.42;;;12.30;95.00;;;;;;5079177;28;20240;-70
2023/05/03 04:55:10;;;;;;;6.18;2.40;;;12.60;94.90;;;;;;5072348;28;20318;-69
2023/05/03 04:57:59;;;;;;;3.20;2.40;;;12.40;94.60;;;;;;5096623;27;20722;-71
2023/05/03 05:00:49;;;;;;;4.45;2.45;;;12.90;94.80;;;;;;5065152;28;20309;-71
2023/05/03 05:03:45;;;;;;;5.13;2.20;;;13.20;94.00;;;;;;5094042;27;21689;-71
2023/05/03 05:06:41;;;;;;;3.40;2.30;;;13.60;93.30;;;;;;5066082;28;20224;-71
2023/05/03 05:09:35;;;;;;;4.57;2.38;;;14.40;92.50;;;;;;5070669;28;20226;-69
2023/05/03 05:12:26;;;;;;;5.43;2.60;;;14.30;91.50;;;;;;5073999;28;20226;-70
2023/05/03 05:15:16;;;;;;;4.47;2.50;;;14.00;91.90;;;;;;5091044;27;20217;-69
2023/05/03 05:18:06;;;;;;;4.28;2.40;;;14.10;92.00;;;;;;5083358;28;20221;-70
2023/05/03 05:20:55;;;;;;;4.57;2.53;;;14.30;91.90;;;;;;5066899;28;20223;-72
2023/05/03 05:23:44;;;;;;;6.43;2.47;;;14.30;91.80;;;;;;5067082;28;20223;-72
2023/05/03 05:26:34;;;;;;;7.32;2.28;;;14.20;91.10;;;;;;5073413;28;20710;-73
2023/05/03 05:29:23;;;;;;;3.63;2.40;;;13.60;91.80;;;;;;5075610;28;20232;-73
2023/05/03 05:32:12;;;;;;;3.30;2.25;;;13.80;91.40;;;;;;5076453;28;20239;-73
2023/05/03 05:35:04;;;;;;;5.50;2.20;;;13.90;90.60;;;;;;5072885;28;20479;-73
2023/05/03 05:37:53;;;;;;;4.22;2.10;;;13.80;90.70;;;;;;5072930;28;20227;-72
2023/05/03 05:40:42;;;;;;;3.78;2.00;;;13.90;90.40;;;;;;5099442;27;20225;-74
2023/05/03 05:43:32;;;;;;;3.78;1.90;;;13.90;89.90;;;;;;5095245;27;20238;-73
2023/05/03 05:46:21;;;;;;;2.42;1.90;;;13.70;90.10;;;;;;5068991;28;20277;-70
2023/05/03 05:49:12;;;;;;;3.95;1.90;;;13.90;89.90;;;;;;5092291;27;20646;-71
2023/05/03 05:52:01;;;;;;;2.45;1.73;;;14.00;88.10;;;;;;5065746;28;20235;-72
2023/05/03 05:54:50;;;;;;;3.25;1.77;;;14.20;90.00;;;;;;5061590;28;20326;-70
2023/05/03 05:57:39;;;;;;;3.45;2.08;;;14.30;86.10;;;;;;5069605;28;20238;-69
2023/05/03 06:00:31;;;;;;;3.42;2.05;;;15.40;83.60;;;;;;5062909;28;20220;-72
2023/05/03 06:03:20;;;;;;;4.28;1.92;;;16.30;79.70;;;;;;5079770;28;21307;-72
2023/05/03 06:06:11;;;;;;;3.55;1.90;;;15.90;78.00;;;;;;5071372;28;20223;-73
2023/05/03 06:09:00;;;;;;;3.10;1.80;;;15.50;80.10;;;;;;5068899;28;20219;-72
2023/05/03 06:12:05;;;;;;;4.75;2.10;;;15.30;81.40;;;;;;5077197;28;20222;-72
2023/05/03 06:14:56;;;;;;;2.25;1.50;;;15.10;81.00;;;;;;5068163;28;20235;-73
2023/05/03 06:17:57;;;;;;;3.45;1.83;;;15.20;80.70;;;;;;5079874;28;20224;-72
2023/05/03 06:20:49;;;;;;;2.88;1.75;;;14.90;78.10;;;;;;5072110;28;20373;-71
2023/05/03 06:23:39;;;;;;;3.58;1.40;;;15.00;77.80;;;;;;5071004;28;20334;-73
2023/05/03 06:26:29;;;;;;;2.10;1.50;;;15.70;75.60;;;;;;5069503;28;20219;-73
2023/05/03 06:29:18;;;;;;;2.42;1.30;;;17.20;73.70;;;;;;5094208;27;20231;-69
2023/05/03 06:32:07;;;;;;;2.45;1.60;;;17.70;69.70;;;;;;5074186;28;20218;-70
2023/05/03 06:34:58;;;;;;;1.83;1.38;;;17.00;67.10;;;;;;5070740;28;20654;-69
2023/05/03 06:37:48;;;;;;;4.50;1.40;;;16.50;68.60;;;;;;5068012;28;20224;-69
2023/05/03 06:40:37;;;;;;;2.28;1.25;;;16.00;66.80;;;;;;5072583;28;20709;-70
2023/05/03 06:43:26;;;;;;;4.75;1.80;;;16.10;67.40;;;;;;5069940;28;20702;-70
2023/05/03 06:46:21;;;;;;;2.45;1.42;;;15.90;67.60;;;;;;5079612;28;20748;-70
2023/05/03 06:49:09;;;;;;;1.88;1.30;;;16.10;67.30;;;;;;5067224;28;20227;-70
2023/05/03 06:52:00;;;;;;;2.47;1.58;;;15.70;67.90;;;;;;5065114;28;20238;-73
2023/05/03 06:54:49;;;;;;;3.35;1.60;;;16.30;68.70;;;;;;5068600;28;20689;-70
2023/05/03 06:57:39;;;;;;;2.15;1.50;;;16.50;69.30;;;;;;5066266;28;20656;-69
2023/05/03 07:00:28;;;;;;;3.10;1.60;;;16.40;68.10;;;;;;5060611;28;20228;-69
2023/05/03 07:03:17;;;;;;;4.25;1.83;;;16.70;68.50;;;;;;5073663;28;20560;-69
2023/05/03 07:06:07;;;;;;;2.65;1.65;;;16.60;67.40;;;;;;5067772;28;20227;-67
2023/05/03 07:08:57;;;;;;;3.75;2.00;;;16.40;68.00;;;;;;5081353;28;20235;-66
2023/05/03 07:11:49;;;;;;;2.80;1.70;;;16.70;68.00;;;;;;5076580;28;20768;-68
2023/05/03 07:14:38;;;;;;;3.78;1.73;;;17.20;66.20;;;;;;5082594;28;20226;-69
2023/05/03 07:17:27;;;;;;;3.30;1.80;;;17.40;67.70;;;;;;5081628;28;20219;-68
2023/05/03 07:20:16;;;;;;;4.25;1.50;;;17.60;67.40;;;;;;5087798;28;20310;-68
2023/05/03 07:23:05;;;;;;;3.55;1.70;;;17.90;66.50;;;;;;5074820;28;20536;-69
2023/05/03 07:25:55;;;;;;;5.40;1.75;;;17.60;64.30;;;;;;5081902;28;20317;-68
2023/05/03 07:28:44;;;;;;;2.78;1.42;;;18.00;64.30;;;;;;5076801;28;20224;-68
2023/05/03 07:31:33;;;;;;;3.58;1.63;;;17.90;64.00;;;;;;5083472;28;20219;-69
2023/05/03 07:34:22;;;;;;;3.30;1.75;;;18.30;64.50;;;;;;5070739;28;21086;-68
2023/05/03 07:37:11;;;;;;;3.22;1.67;;;18.40;64.50;;;;;;5074128;28;20680;-68
2023/05/03 07:39:59;;;;;;;3.72;1.70;;;18.40;65.40;;;;;;5076575;28;20232;-70
2023/05/03 07:42:50;;;;;;;3.10;1.60;;;18.60;64.10;;;;;;5079215;28;20302;-68
2023/05/03 07:45:39;;;;;;;4.65;1.45;;;18.70;64.10;;;;;;5072127;28;20224;-68
2023/05/03 07:48:28;;;;;;;5.20;1.65;;;19.00;63.40;;;;;;5077963;28;20224;-68
2023/05/03 07:51:16;;;;;;;2.13;1.45;;;19.10;63.50;;;;;;5093117;27;20224;-68
2023/05/03 07:54:06;;;;;;;2.55;1.45;;;18.40;64.40;;;;;;5074913;28;20227;-69
2023/05/03 07:56:54;;;;;;;4.75;1.60;;;19.60;62.00;;;;;;5072093;28;20240;-71
2023/05/03 07:59:45;;;;;;;2.78;1.63;;;19.90;60.40;;;;;;5082585;28;20216;-69
2023/05/03 08:02:34;;;;;;;3.38;1.77;;;20.00;59.90;;;;;;5062547;28;20224;-70
2023/05/03 08:05:24;;;;;;;4.07;1.70;;;20.00;61.00;;;;;;5071970;28;20224;-70
2023/05/03 08:08:13;;;;;;;4.90;2.20;;;19.20;61.60;;;;;;5071731;28;20315;-69
2023/05/03 08:11:02;;;;;;;3.45;1.90;;;18.60;62.30;;;;;;5073048;28;20343;-69
2023/05/03 08:13:51;;;;;;;3.75;1.50;;;19.40;63.30;;;;;;5069974;28;20709;-70
2023/05/03 08:16:41;;;;;;;5.93;1.90;;;20.10;61.50;;;;;;5102234;27;20226;-70
2023/05/03 08:19:31;;;;;;;3.08;1.73;;;20.90;60.30;;;;;;5077142;28;20297;-70
2023/05/03 08:22:20;;;;;;;3.63;1.65;;;21.10;59.20;;;;;;5074555;28;20242;-70
2023/05/03 08:25:10;;;;;;;4.15;1.80;;;20.10;60.20;;;;;;5069642;28;20281;-68
2023/05/03 08:27:59;;;;;;;3.08;1.92;;;18.90;61.10;;;;;;5075883;28;20224;-69
2023/05/03 08:30:47;;;;;;;4.32;2.10;;;18.40;64.40;;;;;;5073592;28;20224;-70
2023/05/03 08:33:38;;;;;;;3.60;1.90;;;19.20;61.70;;;;;;5069240;28;20299;-69
2023/05/03 08:36:26;;;;;;;3.65;1.88;;;20.30;60.90;;;;;;5071428;28;20227;-70
2023/05/03 08:39:16;;;;;;;3.25;1.95;;;21.30;60.70;;;;;;5070637;28;20604;-71
2023/05/03 08:42:07;;;;;;;3.15;1.92;;;21.90;58.80;;;;;;5066420;28;20280;-70
2023/05/03 08:44:56;;;;;;;4.13;1.92;;;22.40;58.60;;;;;;5068737;28;20230;-71
2023/05/03 08:47:45;;;;;;;4.13;2.00;;;22.70;56.60;;;;;;5066778;28;20250;-71
2023/05/03 08:50:40;;;;;;;3.10;2.17;;;23.10;57.50;;;;;;5067461;28;20315;-69
2023/05/03 08:53:32;;;;;;;3.53;2.10;;;22.20;56.20;;;;;;5072455;28;20215;-70
2023/05/03 08:56:27;;;;;;;5.00;2.22;;;22.70;57.50;;;;;;5072996;28;20668;-71
2023/05/03 08:59:16;;;;;;;5.30;2.05;;;23.00;54.80;;;;;;5069960;28;20246;-70
2023/05/03 09:02:08;;;;;;;4.25;2.30;;;21.50;57.80;;;;;;5071300;28;20714;-70
2023/05/03 09:04:57;;;;;;;4.22;1.80;;;22.40;56.70;;;;;;5074733;28;20236;-68
2023/05/03 09:08:01;;;;;;;5.20;2.22;;;22.80;54.10;;;;;;5071691;28;21020;-71
2023/05/03 09:10:50;;;;;;;3.33;2.20;;;22.90;53.80;;;;;;5067029;28;20603;-70
2023/05/03 09:13:40;;;;;;;6.25;2.28;;;21.50;54.80;;;;;;5078322;28;20697;-71
2023/05/03 09:16:29;;;;;;;3.05;2.22;;;20.90;56.70;;;;;;5079298;28;20226;-71
2023/05/03 09:19:18;;;;;;;4.88;2.20;;;19.50;57.70;;;;;;5068553;28;20310;-71
2023/05/03 09:22:07;;;;;;;2.92;2.20;;;19.50;58.70;;;;;;5070882;28;20259;-68
2023/05/03 09:25:00;;;;;;;4.05;2.10;;;20.30;58.40;;;;;;5068869;28;20268;-68
2023/05/03 09:28:01;;;;;;;4.07;2.53;;;21.90;57.40;;;;;;5073312;28;20254;-68
2023/05/03 09:31:03;;;;;;;3.58;2.28;;;23.10;57.40;;;;;;5067501;28;20946;-68
2023/05/03 09:33:53;;;;;;;3.17;2.28;;;24.00;54.90;;;;;;5066368;28;21061;-68
2023/05/03 09:36:47;;;;;;;4.90;2.50;;;24.70;53.50;;;;;;5070516;28;20411;-69
2023/05/03 09:39:36;;;;;;;3.67;2.17;;;25.80;52.00;;;;;;5071360;28;20300;-72
2023/05/03 09:42:27;;;;;;;3.65;2.05;;;24.10;52.80;;;;;;5074208;28;20219;-69
2023/05/03 09:45:24;;;;;;;2.78;2.08;;;22.30;53.70;;;;;;5069240;28;20358;-70
2023/05/03 09:48:13;;;;;;;2.80;1.95;;;21.60;55.50;;;;;;5066712;28;20320;-69
2023/05/03 09:51:04;;;;;;;3.35;2.10;;;21.40;56.30;;;;;;5071924;28;20222;-69
2023/05/03 09:53:54;;;;;;;3.33;2.03;;;24.00;54.20;;;;;;5070434;28;20231;-68
2023/05/03 09:56:46;;;;;;;3.80;1.90;;;26.10;51.00;;;;;;5074350;28;20223;-69
2023/05/03 09:59:37;;;;;;;3.38;1.92;;;27.00;48.60;;;;;;5070186;28;20238;-69
2023/05/03 10:02:26;;;;;;;2.00;1.58;;;28.50;46.10;;;;;;5069802;28;20587;-69
2023/05/03 10:05:19;;;;;;;2.25;1.50;;;29.30;44.30;;;;;;5068148;28;20289;-68
2023/05/03 10:08:10;;;;;;;2.55;1.70;;;29.40;43.80;;;;;;5057914;28;20785;-69
2023/05/03 10:10:59;;;;;;;3.40;1.58;;;30.50;42.60;;;;;;5062143;28;20277;-70
2023/05/03 10:13:48;;;;;;;6.57;2.00;;;30.20;41.50;;;;;;5064295;28;20624;-70
2023/05/03 10:16:44;;;;;;;3.15;1.70;;;29.00;39.80;;;;;;5061040;28;20698;-69
2023/05/03 10:19:37;;;;;;;2.55;1.88;;;29.70;41.30;;;;;;5066451;28;20351;-70
2023/05/03 10:22:26;;;;;;;4.43;2.00;;;29.40;42.30;;;;;;5067821;28;20380;-71
2023/05/03 10:25:15;;;;;;;2.78;2.25;;;31.70;40.70;;;;;;5071194;28;20685;-69
2023/05/03 10:28:05;;;;;;;5.30;1.83;;;32.30;40.50;;;;;;5071670;28;20304;-69
2023/05/03 10:30:54;;;;;;;2.97;2.05;;;33.00;40.00;;;;;;5078582;28;21165;-68
2023/05/03 10:33:44;;;;;;;2.90;2.15;;;33.80;39.00;;;;;;5066569;28;20211;-71
2023/05/03 10:36:33;;;;;;;3.72;2.22;;;34.70;38.00;;;;;;5069211;28;20223;-69
2023/05/03 10:39:36;;;;;;;3.30;1.90;;;35.40;37.30;;;;;;5073375;28;20811;-70
2023/05/03 10:42:26;;;;;;;2.58;2.08;;;35.70;37.20;;;;;;5077926;28;20641;-70
2023/05/03 10:45:23;;;;;;;2.45;2.10;;;35.10;37.00;;;;;;5068591;28;20220;-70
2023/05/03 10:48:19;;;;;;;5.40;2.05;;;30.60;37.80;;;;;;5071943;28;20225;-69
2023/05/03 10:51:35;;;;;;;4.00;2.50;;;28.30;39.40;;;;;;5074164;28;20246;-69
2023/05/03 10:54:25;;;;;;;3.20;2.30;;;;;;;;;;5078521;28;20222;-68
2023/05/03 10:57:14;;;;;;;2.78;1.80;;;34.10;35.90;;;;;;5072057;28;20239;-68
2023/05/03 11:00:07;;;;;;;2.92;2.00;;;33.30;35.00;;;;;;5071954;28;20726;-68
2023/05/03 11:03:25;;;;;;;4.10;2.45;;;30.20;38.00;;;;;;5063852;28;20223;-69
2023/05/03 11:06:35;;;;;;;3.90;2.40;;;27.60;40.80;;;;;;5066084;28;20224;-70
2023/05/03 11:09:32;;;;;;;4.65;2.25;;;31.50;40.60;;;;;;5067879;28;20350;-68
2023/05/03 11:12:21;;;;;;;5.30;2.08;;;34.50;35.80;;;;;;5069713;28;20260;-70
2023/05/03 11:15:11;;;;;;;4.35;2.28;;;34.80;36.40;;;;;;5066706;28;20596;-70
2023/05/03 11:18:00;;;;;;;3.72;2.30;;;35.80;36.00;;;;;;5071307;28;20228;-70
2023/05/03 11:20:49;;;;;;;3.00;2.25;;;36.60;33.90;;;;;;5070664;28;20238;-70
2023/05/03 11:23:41;;;;;;;2.47;2.28;;;37.00;34.30;;;;;;5072703;28;20220;-70
2023/05/03 11:26:35;;;;;;;2.42;1.70;;;38.30;31.60;;;;;;5069166;28;20693;-70
2023/05/03 11:29:25;;;;;;;3.47;1.75;;;37.10;32.10;;;;;;5079296;28;20584;-70
2023/05/03 11:32:14;;;;;;;3.15;2.10;;;32.50;33.70;;;;;;5088472;27;20211;-70
2023/05/03 11:35:06;;;;;;;4.00;1.80;;;32.10;37.00;;;;;;5070354;28;20728;-70
2023/05/03 11:37:55;;;;;;;3.28;2.05;;;29.40;38.70;;;;;;5069248;28;20285;-69
2023/05/03 11:40:45;;;;;;;4.50;2.20;;;27.20;39.70;;;;;;5073707;28;20231;-68
2023/05/03 11:43:40;;;;;;;3.20;2.30;;;28.40;40.00;;;;;;5067949;28;20230;-69
2023/05/03 11:46:33;;;;;;;4.25;2.35;;;35.60;35.70;;;;;;5069897;28;20262;-69
2023/05/03 11:49:24;;;;;;;2.30;2.00;;;36.20;35.30;;;;;;5070552;28;20341;-69
2023/05/03 11:52:13;;;;;;;3.22;1.85;;;38.50;33.00;;;;;;5068051;28;20223;-70
2023/05/03 11:55:03;;;;;;;2.90;2.17;;;39.50;31.10;;;;;;5070984;28;20306;-71
2023/05/03 11:57:54;;;;;;;3.10;1.92;;;36.20;32.60;;;;;;5068242;28;20257;-70
2023/05/03 12:00:44;;;;;;;2.90;2.08;;;37.80;32.50;;;;;;5065924;28;20773;-70
2023/05/03 12:03:34;;;;;;;2.60;1.80;;;40.30;31.50;;;;;;5068464;28;20211;-70
2023/05/03 12:06:26;;;;;;;4.45;1.88;;;42.00;30.90;;;;;;5064879;28;20227;-71
2023/05/03 12:09:15;;;;;;;4.68;1.90;;;42.50;29.90;;;;;;5069877;28;20223;-67
2023/05/03 12:12:06;;;;;;;2.22;1.80;;;42.90;29.00;;;;;;5068462;28;20250;-69
2023/05/03 12:15:01;;;;;;;3.40;2.03;;;40.40;28.20;;;;;;5066120;28;20211;-69
2023/05/03 12:17:56;;;;;;;2.60;1.65;;;37.10;30.50;;;;;;5069972;28;20258;-69
2023/05/03 12:20:56;;;;;;;2.00;1.70;;;33.30;30.90;;;;;;5064723;28;20226;-69
2023/05/03 12:23:50;;;;;;;3.00;1.80;;;29.60;33.50;;;;;;5065827;28;20589;-69
2023/05/03 12:26:39;;;;;;;4.30;1.67;;;27.20;37.80;;;;;;5073572;28;20222;-70
2023/05/03 12:29:30;;;;;;;3.20;2.50;;;26.30;38.20;;;;;;5065995;28;20332;-68
2023/05/03 12:32:24;;;;;;;2.75;1.80;;;24.30;39.50;;;;;;5068045;28;20659;-70
2023/05/03 12:35:13;;;;;;;3.50;2.38;;;22.80;44.00;;;;;;5068813;28;20233;-67
2023/05/03 12:38:04;;;;;;;3.53;2.10;;;22.80;44.40;;;;;;5073505;28;20224;-68
2023/05/03 12:40:57;;;;;;;5.85;2.00;;;21.90;44.60;;;;;;5071190;28;20226;-69
2023/05/03 12:43:46;;;;;;;3.67;2.10;;;20.90;45.20;;;;;;5075026;28;20264;-66
2023/05/03 12:46:36;;;;;;;3.40;2.03;;;21.00;46.50;;;;;;5072969;28;20973;-69
2023/05/03 12:49:26;;;;;;;3.40;2.00;;;20.80;47.00;;;;;;5065945;28;20223;-70
2023/05/03 12:52:16;;;;;;;5.88;1.73;;;20.50;46.80;;;;;;5072119;28;20227;-69
2023/05/03 12:55:08;;;;;;;4.72;1.73;;;20.60;47.90;;;;;;5067751;28;20226;-67
2023/05/03 12:57:59;;;;;;;4.20;1.88;;;20.00;48.50;;;;;;5065504;28;20251;-70
2023/05/03 13:00:57;;;;;;;2.38;1.63;;;19.50;50.00;;;;;;5067842;28;20227;-67
2023/05/03 13:03:48;;;;;;;4.30;1.63;;;19.40;49.50;;;;;;5066607;28;20223;-69
2023/05/03 13:06:59;;;;;;;5.60;2.03;;;19.00;49.60;;;;;;5065152;28;20224;-69
2023/05/03 13:09:49;;;;;;;6.70;1.90;;;19.40;55.00;;;;;;5064163;28;20844;-71
2023/05/03 13:12:40;;;;;;;4.32;1.40;;;19.90;51.60;;;;;;5073551;28;20305;-69
2023/05/03 13:15:30;;;;;;;3.47;1.70;;;19.90;51.60;;;;;;5069174;28;20305;-67
2023/05/03 13:18:18;;;;;;;4.70;2.08;;;20.10;54.50;;;;;;5066108;28;20266;-66
2023/05/03 13:21:07;;;;;;;4.05;1.60;;;20.30;52.20;;;;;;5069048;28;20224;-66
2023/05/03 13:23:58;;;;;;;3.95;1.80;;;20.30;53.60;;;;;;5071677;28;20280;-69
2023/05/03 13:26:48;;;;;;;3.40;1.83;;;20.30;54.20;;;;;;5070349;28;20220;-67
2023/05/03 13:29:37;;;;;;;3.72;1.75;;;20.10;53.30;;;;;;5049795;28;20228;-69
2023/05/03 13:32:25;;;;;;;4.47;1.85;;;20.00;50.80;;;;;;5048233;28;20220;-69
2023/05/03 13:35:15;;;;;;;2.80;1.67;;;19.90;52.30;;;;;;5046217;28;20221;-68
2023/05/03 13:38:04;;;;;;;3.45;2.00;;;19.40;52.00;;;;;;5044792;28;20638;-69
2023/05/03 13:40:54;;;;;;;3.45;2.40;;;19.40;52.00;;;;;;5048389;28;20239;-68
2023/05/03 13:43:43;;;;;;;4.32;1.80;;;19.30;54.40;;;;;;5049412;28;20216;-68
2023/05/03 13:46:32;;;;;;;3.35;1.70;;;19.30;53.90;;;;;;5036799;28;20221;-68
2023/05/03 13:49:21;;;;;;;2.58;1.65;;;18.70;53.70;;;;;;5054361;28;20532;-71
2023/05/03 13:52:11;;;;;;;2.45;1.70;;;18.70;53.60;;;;;;5047580;28;20267;-67
2023/05/03 13:55:03;;;;;;;7.25;2.30;;;19.10;55.90;;;;;;5050248;28;20296;-68
2023/05/03 13:57:53;;;;;;;4.20;1.70;;;18.90;53.40;;;;;;5042794;28;20297;-68
2023/05/03 14:00:42;;;;;;;4.35;2.22;;;18.80;54.30;;;;;;5060557;28;20208;-68
2023/05/03 14:03:32;;;;;;;2.15;1.83;;;18.60;56.10;;;;;;5041685;28;20220;-68
2023/05/03 14:06:22;;;;;;;3.05;2.00;;;18.80;55.40;;;;;;5045295;28;20359;-69
2023/05/03 14:09:11;;;;;;;4.03;1.80;;;18.60;54.10;;;;;;5030672;28;20236;-68
2023/05/03 14:12:01;;;;;;;1.90;1.63;;;18.50;51.60;;;;;;5047092;28;20576;-68
2023/05/03 14:14:53;;;;;;;5.20;2.10;;;18.60;55.90;;;;;;5045003;28;20233;-68
2023/05/03 14:17:42;;;;;;;5.13;2.08;;;18.70;55.60;;;;;;5049459;28;20270;-68
2023/05/03 14:20:32;;;;;;;3.03;1.80;;;19.10;64.80;;;;;;5031701;28;20349;-68
2023/05/03 14:23:23;;;;;;;3.55;1.67;;;18.80;53.50;;;;;;5060471;28;20224;-70
2023/05/03 14:26:12;;;;;;;3.70;1.80;;;18.90;55.80;;;;;;5052807;28;20221;-69
2023/05/03 14:29:01;;;;;;;4.00;1.70;;;19.00;57.20;;;;;;5063128;28;20314;-69
2023/05/03 14:31:52;;;;;;;4.47;2.00;;;19.00;54.60;;;;;;5080067;28;20223;-69
2023/05/03 14:34:41;;;;;;;3.00;1.90;;;19.00;54.90;;;;;;5070753;28;20883;-69
2023/05/03 14:37:32;;;;;;;6.38;1.98;;;18.70;53.30;;;;;;5070881;28;20759;-70
2023/05/03 14:40:21;;;;;;;5.55;1.70;;;18.30;52.50;;;;;;5077096;28;21081;-69
2023/05/03 14:43:09;;;;;;;3.63;1.83;;;18.00;54.40;;;;;;5071410;28;20304;-69
2023/05/03 14:45:58;;;;;;;4.47;2.00;;;18.30;58.10;;;;;;5083097;27;20230;-68
2023/05/03 14:48:48;;;;;;;3.80;1.90;;;18.30;56.70;;;;;;5076172;28;20299;-70
2023/05/03 14:51:37;;;;;;;2.95;1.98;;;18.40;59.30;;;;;;5072553;28;20232;-70